Time;durP1;ratioP1;P1;durP2;ratioP2;P2;SDS_P1;SDS_P2;PMS_P1;PMS_P2;Temp;Humidity;BMP_temperature;BMP_pressure;BME280_temperature;BME280_humidity;BME280_pressure;Samples;Min_cycle;Max_cycle;Signal;HPM_P1;HPM_P2
2022/08/31 00:04:31;;;;;;;15.38;8.68;;;;;;;;;;5014896;28;20041;-60
2022/08/31 00:06:57;;;;;;;14.52;8.90;;;;;;;;;;5014594;28;20022;-62
2022/08/31 00:09:23;;;;;;;14.25;8.80;;;;;;;;;;5014345;28;20022;-61
2022/08/31 00:11:49;;;;;;;16.30;9.20;;;;;;;;;;5013281;28;20103;-62
2022/08/31 00:14:15;;;;;;;18.00;9.60;;;;;;;;;;5014575;28;20069;-61
2022/08/31 00:16:42;;;;;;;14.70;9.07;;;;;;;;;;5014421;28;20548;-61
2022/08/31 00:19:08;;;;;;;14.70;8.98;;;;;;;;;;5014175;28;20038;-59
2022/08/31 00:21:34;;;;;;;19.70;9.57;;;;;;;;;;5014233;28;20517;-62
2022/08/31 00:24:00;;;;;;;14.75;9.05;;;;;;;;;;5013165;28;20125;-61
2022/08/31 00:26:26;;;;;;;16.98;8.98;;;;;;;;;;5014411;28;20037;-58
2022/08/31 00:28:52;;;;;;;16.17;9.02;;;;;;;;;;5012773;28;20022;-59
2022/08/31 00:31:19;;;;;;;15.45;9.27;;;;;;;;;;5014417;28;20022;-58
2022/08/31 00:33:50;;;;;;;14.93;8.95;;;;;;;;;;5014193;28;20057;-60
2022/08/31 00:36:16;;;;;;;14.98;9.30;;;;;;;;;;5014433;28;20028;-59
2022/08/31 00:38:43;;;;;;;16.25;9.50;;;;;;;;;;5014225;28;20109;-59
2022/08/31 00:41:09;;;;;;;14.75;9.10;;;;;;;;;;5014397;28;20092;-58
2022/08/31 00:43:38;;;;;;;14.80;9.23;;;;;;;;;;5012785;28;20121;-60
2022/08/31 00:46:04;;;;;;;14.38;8.98;;;;;;;;;;5013705;28;20058;-61
2022/08/31 00:48:30;;;;;;;15.40;9.30;;;;;;;;;;5012981;28;20026;-59
2022/08/31 00:50:57;;;;;;;14.77;9.32;;;;;;;;;;5013364;28;20497;-59
2022/08/31 00:53:23;;;;;;;15.07;9.23;;;;;;;;;;5013623;28;20030;-59
2022/08/31 00:55:50;;;;;;;14.65;9.50;;;;;;;;;;5013892;28;20091;-62
2022/08/31 00:58:16;;;;;;;14.63;9.18;;;;;;;;;;5012164;28;20033;-60
2022/08/31 01:00:42;;;;;;;14.90;8.95;;;;;;;;;;5013500;28;20026;-59
2022/08/31 01:03:09;;;;;;;14.80;9.50;;;;;;;;;;5013737;28;20030;-61
2022/08/31 01:05:36;;;;;;;15.07;9.48;;;;;;;;;;5013350;28;20022;-59
2022/08/31 01:08:03;;;;;;;17.42;9.88;;;;;;;;;;5013244;28;20561;-60
2022/08/31 01:10:34;;;;;;;14.95;9.20;;;;;;;;;;5013160;28;20533;-59
2022/08/31 01:13:00;;;;;;;16.10;9.20;;;;;;;;;;5013117;28;20025;-62
2022/08/31 01:15:27;;;;;;;14.82;9.25;;;;;;;;;;5013082;28;20018;-60
2022/08/31 01:17:54;;;;;;;15.15;9.45;;;;;;;;;;5012979;28;20489;-61
2022/08/31 01:20:20;;;;;;;14.90;9.82;;;;;;;;;;5013323;28;20028;-59
2022/08/31 01:23:01;;;;;;;15.85;9.65;;;;;;;;;;5012823;28;20382;-60
2022/08/31 01:25:27;;;;;;;15.38;9.18;;;;;;;;;;5013193;28;20069;-56
2022/08/31 01:27:54;;;;;;;14.65;9.30;;;;;;;;;;5013628;28;20022;-59
2022/08/31 01:30:22;;;;;;;14.13;8.80;;;;;;;;;;5013148;28;20033;-55
2022/08/31 01:32:48;;;;;;;15.10;9.20;;;;;;;;;;5013145;28;20083;-58
2022/08/31 01:35:14;;;;;;;14.57;9.00;;;;;;;;;;5011704;28;20049;-58
2022/08/31 01:37:40;;;;;;;16.05;9.82;;;;;;;;;;5011300;28;20022;-57
2022/08/31 01:40:06;;;;;;;15.00;9.10;;;;;;;;;;5011179;28;20081;-61
2022/08/31 01:42:33;;;;;;;14.65;9.63;;;;;;;;;;5012702;28;20022;-61
2022/08/31 01:44:59;;;;;;;14.85;9.52;;;;;;;;;;5012766;28;20026;-57
2022/08/31 01:47:25;;;;;;;14.10;9.02;;;;;;;;;;5012375;28;20038;-62
2022/08/31 01:49:51;;;;;;;18.40;9.25;;;;;;;;;;5012468;28;20022;-59
2022/08/31 01:52:16;;;;;;;14.75;9.20;;;;;;;;;;5012564;28;20026;-58
2022/08/31 01:54:42;;;;;;;15.38;9.40;;;;;;;;;;5012760;28;20101;-59
2022/08/31 01:57:09;;;;;;;15.80;9.75;;;;;;;;;;5012358;28;20026;-56
2022/08/31 01:59:35;;;;;;;15.18;9.60;;;;;;;;;;5011055;28;20037;-59
2022/08/31 02:02:01;;;;;;;15.88;9.50;;;;;;;;;;5012223;28;20021;-59
2022/08/31 02:04:28;;;;;;;14.85;9.82;;;;;;;;;;5012461;28;20368;-62
2022/08/31 02:06:56;;;;;;;14.27;9.45;;;;;;;;;;5012364;28;20030;-62
2022/08/31 02:09:22;;;;;;;14.43;9.32;;;;;;;;;;5011588;28;20394;-61
2022/08/31 02:11:48;;;;;;;14.48;9.32;;;;;;;;;;5011123;28;20022;-61
2022/08/31 02:14:14;;;;;;;15.80;9.77;;;;;;;;;;5012228;28;20030;-57
2022/08/31 02:16:41;;;;;;;14.40;9.40;;;;;;;;;;5012201;28;20383;-61
2022/08/31 02:19:07;;;;;;;14.65;9.50;;;;;;;;;;5011886;28;20084;-60
2022/08/31 02:21:33;;;;;;;14.40;9.50;;;;;;;;;;5012030;28;20026;-60
2022/08/31 02:23:59;;;;;;;14.65;9.68;;;;;;;;;;5010950;28;20037;-60
2022/08/31 02:26:25;;;;;;;15.30;9.88;;;;;;;;;;5012081;28;20026;-60
2022/08/31 02:28:51;;;;;;;15.45;9.80;;;;;;;;;;5011923;28;20029;-60
2022/08/31 02:31:17;;;;;;;14.40;9.43;;;;;;;;;;5011924;28;20103;-59
2022/08/31 02:33:43;;;;;;;14.80;9.80;;;;;;;;;;5012166;28;20018;-58
2022/08/31 02:36:10;;;;;;;14.80;9.82;;;;;;;;;;5012414;28;20483;-59
2022/08/31 02:38:36;;;;;;;15.40;9.70;;;;;;;;;;5011505;28;20108;-60
2022/08/31 02:41:03;;;;;;;15.00;9.45;;;;;;;;;;5011916;28;20363;-61
2022/08/31 02:43:29;;;;;;;14.30;9.02;;;;;;;;;;5012099;28;20471;-59
2022/08/31 02:45:55;;;;;;;16.20;9.48;;;;;;;;;;5010530;28;20028;-61
2022/08/31 02:48:22;;;;;;;16.08;9.40;;;;;;;;;;5011722;28;20030;-58
2022/08/31 02:50:49;;;;;;;15.43;10.05;;;;;;;;;;5011796;28;20391;-58
2022/08/31 02:53:15;;;;;;;16.25;10.10;;;;;;;;;;5010720;28;20092;-59
2022/08/31 02:55:42;;;;;;;14.27;9.88;;;;;;;;;;5011946;28;20498;-59
2022/08/31 02:58:08;;;;;;;15.00;9.90;;;;;;;;;;5011550;28;20120;-60
2022/08/31 03:00:34;;;;;;;16.17;10.00;;;;;;;;;;5011774;28;20359;-59
2022/08/31 03:03:00;;;;;;;14.98;9.70;;;;;;;;;;5010542;28;20101;-59
2022/08/31 03:05:27;;;;;;;16.58;9.80;;;;;;;;;;5012016;28;20517;-57
2022/08/31 03:07:53;;;;;;;14.30;9.23;;;;;;;;;;5011612;28;20466;-58
2022/08/31 03:10:21;;;;;;;14.23;9.40;;;;;;;;;;5010459;28;20022;-60
2022/08/31 03:12:47;;;;;;;15.45;9.15;;;;;;;;;;5013304;28;20178;-59
2022/08/31 03:15:14;;;;;;;14.55;9.50;;;;;;;;;;5015644;28;20021;-58
2022/08/31 03:17:40;;;;;;;15.23;9.60;;;;;;;;;;5015445;28;20026;-59
2022/08/31 03:20:06;;;;;;;15.73;9.75;;;;;;;;;;5014329;28;20053;-61
2022/08/31 03:22:32;;;;;;;15.05;9.50;;;;;;;;;;5015542;28;20018;-57
2022/08/31 03:24:59;;;;;;;14.73;9.80;;;;;;;;;;5015757;28;20102;-56
2022/08/31 03:27:25;;;;;;;14.52;8.98;;;;;;;;;;5015338;28;20026;-55
2022/08/31 03:29:52;;;;;;;14.40;9.27;;;;;;;;;;5015705;28;20108;-57
2022/08/31 03:32:18;;;;;;;15.50;9.23;;;;;;;;;;5015316;28;20046;-61
2022/08/31 03:34:44;;;;;;;14.40;9.32;;;;;;;;;;5015438;28;20724;-60
2022/08/31 03:37:10;;;;;;;15.88;9.73;;;;;;;;;;5014947;28;20034;-56
2022/08/31 03:39:37;;;;;;;15.50;9.95;;;;;;;;;;5014938;28;20038;-59
2022/08/31 03:42:05;;;;;;;15.75;9.88;;;;;;;;;;5015281;28;20022;-58
2022/08/31 03:44:31;;;;;;;16.08;9.60;;;;;;;;;;5015133;28;20022;-58
2022/08/31 03:46:58;;;;;;;15.25;9.85;;;;;;;;;;5015763;28;20038;-59
2022/08/31 03:49:25;;;;;;;17.17;10.45;;;;;;;;;;5043199;28;20028;-61
2022/08/31 03:51:51;;;;;;;15.40;9.65;;;;;;;;;;5042266;28;20504;-58
2022/08/31 03:54:18;;;;;;;15.50;9.50;;;;;;;;;;5054701;28;20025;-60
2022/08/31 03:56:45;;;;;;;14.82;9.65;;;;;;;;;;5041973;28;20025;-58
2022/08/31 03:59:12;;;;;;;14.82;9.68;;;;;;;;;;5033281;28;20055;-60
2022/08/31 04:01:38;;;;;;;14.80;9.35;;;;;;;;;;5034712;28;20075;-61
2022/08/31 04:04:04;;;;;;;14.20;9.32;;;;;;;;;;5037103;28;20177;-61
2022/08/31 04:06:30;;;;;;;17.00;9.30;;;;;;;;;;5054520;28;20033;-56
2022/08/31 04:08:56;;;;;;;15.80;10.15;;;;;;;;;;5054314;28;20148;-59
2022/08/31 04:11:23;;;;;;;14.55;9.63;;;;;;;;;;5053431;28;20025;-58
2022/08/31 04:13:49;;;;;;;15.68;9.20;;;;;;;;;;5054470;28;20112;-52
2022/08/31 04:16:17;;;;;;;15.52;9.70;;;;;;;;;;5053989;28;20400;-59
2022/08/31 04:18:43;;;;;;;16.23;10.00;;;;;;;;;;5053735;28;20543;-59
2022/08/31 04:21:13;;;;;;;16.27;9.60;;;;;;;;;;5049791;28;20021;-61
2022/08/31 04:23:39;;;;;;;15.48;9.85;;;;;;;;;;5033838;28;20502;-60
2022/08/31 04:26:35;;;;;;;15.02;9.70;;;;;;;;;;5034041;28;20065;-59
2022/08/31 04:29:01;;;;;;;14.80;9.30;;;;;;;;;;5023816;28;20116;-60
2022/08/31 04:31:28;;;;;;;15.65;9.45;;;;;;;;;;5034034;28;20048;-62
2022/08/31 04:33:55;;;;;;;14.65;9.57;;;;;;;;;;5034314;28;20383;-58
2022/08/31 04:36:23;;;;;;;15.63;9.75;;;;;;;;;;5034522;28;20045;-61
2022/08/31 04:38:50;;;;;;;15.57;9.55;;;;;;;;;;5033941;28;20045;-61
2022/08/31 04:41:18;;;;;;;17.20;9.57;;;;;;;;;;5034021;28;20045;-62
2022/08/31 04:43:46;;;;;;;16.70;9.63;;;;;;;;;;5033683;28;20034;-60
2022/08/31 04:46:12;;;;;;;15.80;9.45;;;;;;;;;;5033193;28;20397;-60
2022/08/31 04:48:38;;;;;;;15.23;9.65;;;;;;;;;;5033033;28;20013;-62
2022/08/31 04:51:06;;;;;;;14.85;9.48;;;;;;;;;;5033497;28;20026;-60
2022/08/31 04:53:32;;;;;;;15.13;9.35;;;;;;;;;;5033746;28;20025;-59
2022/08/31 04:55:58;;;;;;;14.88;9.80;;;;;;;;;;5034391;28;20029;-60
2022/08/31 04:58:24;;;;;;;15.00;9.60;;;;;;;;;;5034202;28;20032;-61
2022/08/31 05:00:51;;;;;;;17.15;10.70;;;;;;;;;;5034324;28;20029;-60
2022/08/31 05:03:17;;;;;;;16.73;9.88;;;;;;;;;;5033354;28;20032;-58
2022/08/31 05:05:45;;;;;;;16.20;9.25;;;;;;;;;;5033584;28;20180;-60
2022/08/31 05:08:11;;;;;;;17.27;9.70;;;;;;;;;;5033088;28;20052;-59
2022/08/31 05:10:39;;;;;;;16.38;10.50;;;;;;;;;;5033463;28;20441;-61
2022/08/31 05:13:05;;;;;;;16.30;10.40;;;;;;;;;;5033926;28;20025;-58
2022/08/31 05:15:32;;;;;;;15.40;9.75;;;;;;;;;;5033640;28;20029;-61
2022/08/31 05:17:58;;;;;;;15.40;10.32;;;;;;;;;;5032442;28;20045;-59
2022/08/31 05:20:24;;;;;;;18.45;11.82;;;;;;;;;;5031406;28;20072;-62
2022/08/31 05:22:50;;;;;;;16.67;10.40;;;;;;;;;;5031385;28;20092;-57
2022/08/31 05:25:16;;;;;;;17.33;10.20;;;;;;;;;;5032879;28;20106;-58
2022/08/31 05:27:42;;;;;;;17.73;10.77;;;;;;;;;;5032455;28;20037;-58
2022/08/31 05:30:09;;;;;;;17.10;10.60;;;;;;;;;;5031556;28;20030;-59
2022/08/31 05:32:35;;;;;;;17.15;9.98;;;;;;;;;;5032871;28;20026;-59
2022/08/31 05:35:01;;;;;;;16.90;10.88;;;;;;;;;;5031060;28;20525;-61
2022/08/31 05:37:27;;;;;;;15.73;10.10;;;;;;;;;;5032535;28;20074;-59
2022/08/31 05:42:19;;;;;;;17.40;10.63;;;;;;;;;;5048524;22;20065;-63
2022/08/31 05:44:46;;;;;;;18.27;12.27;;;;;;;;;;5032753;28;20482;-65
2022/08/31 05:47:12;;;;;;;18.30;11.23;;;;;;;;;;5030896;28;20025;-64
2022/08/31 05:49:38;;;;;;;17.67;12.32;;;;;;;;;;5031825;28;20018;-63
2022/08/31 05:52:05;;;;;;;17.10;10.85;;;;;;;;;;5049746;28;20021;-64
2022/08/31 05:54:34;;;;;;;18.77;10.02;;;;;;;;;;5050408;28;20419;-64
2022/08/31 05:57:00;;;;;;;21.40;14.15;;;;;;;;;;5050634;28;20397;-64
2022/08/31 05:59:26;;;;;;;18.85;12.50;;;;;;;;;;5052033;28;20059;-64
2022/08/31 06:01:52;;;;;;;21.08;11.43;;;;;;;;;;5053129;28;20029;-64
2022/08/31 06:04:18;;;;;;;22.17;11.35;;;;;;;;;;5052459;28;20052;-64
2022/08/31 06:06:44;;;;;;;18.48;10.70;;;;;;;;;;5050815;28;20029;-64
2022/08/31 06:09:10;;;;;;;19.40;12.00;;;;;;;;;;5051749;28;20025;-63
2022/08/31 06:11:38;;;;;;;18.00;11.25;;;;;;;;;;5051635;28;20032;-64
2022/08/31 06:14:04;;;;;;;17.27;10.93;;;;;;;;;;5052955;28;20197;-61
2022/08/31 06:16:31;;;;;;;21.20;11.95;;;;;;;;;;5050514;28;20174;-64
2022/08/31 06:18:57;;;;;;;16.08;10.43;;;;;;;;;;5051447;28;20036;-63
2022/08/31 06:21:25;;;;;;;17.25;10.90;;;;;;;;;;5051509;28;20036;-63
2022/08/31 06:23:52;;;;;;;15.13;10.30;;;;;;;;;;5052044;28;20500;-63
2022/08/31 06:26:19;;;;;;;17.20;10.77;;;;;;;;;;5051754;28;20025;-64
2022/08/31 06:28:47;;;;;;;17.40;10.80;;;;;;;;;;5051831;28;20095;-63
2022/08/31 06:31:19;;;;;;;17.00;10.80;;;;;;;;;;5052174;28;20071;-63
2022/08/31 06:33:46;;;;;;;18.15;11.77;;;;;;;;;;5051496;28;20039;-63
2022/08/31 06:36:13;;;;;;;17.38;12.20;;;;;;;;;;5052420;28;20071;-62
2022/08/31 06:38:40;;;;;;;17.40;11.57;;;;;;;;;;5051576;28;20461;-63
2022/08/31 06:41:14;;;;;;;16.63;11.07;;;;;;;;;;5053330;28;20731;-66
2022/08/31 06:43:40;;;;;;;20.15;11.57;;;;;;;;;;5051818;28;20028;-64
2022/08/31 06:46:06;;;;;;;18.83;13.40;;;;;;;;;;5052089;28;20049;-64
2022/08/31 06:48:33;;;;;;;17.75;11.60;;;;;;;;;;5054787;28;20025;-64
2022/08/31 06:50:59;;;;;;;18.00;11.80;;;;;;;;;;5055975;28;20531;-64
2022/08/31 06:53:25;;;;;;;16.27;11.65;;;;;;;;;;5056132;28;20025;-65
2022/08/31 06:55:51;;;;;;;15.43;10.93;;;;;;;;;;5056314;28;20029;-64
2022/08/31 06:58:17;;;;;;;17.52;11.48;;;;;;;;;;5055697;28;20028;-62
2022/08/31 07:00:44;;;;;;;16.20;11.65;;;;;;;;;;5054365;28;20378;-64
2022/08/31 07:03:22;;;;;;;15.75;10.88;;;;;;;;;;5055805;28;20021;-61
2022/08/31 07:05:52;;;;;;;20.27;11.02;;;;;;;;;;5055648;28;20077;-62
2022/08/31 07:08:21;;;;;;;17.73;11.40;;;;;;;;;;5055233;28;20088;-63
2022/08/31 07:10:47;;;;;;;16.45;11.07;;;;;;;;;;5055790;28;20044;-64
2022/08/31 07:13:13;;;;;;;18.55;11.20;;;;;;;;;;5055786;28;20043;-64
2022/08/31 07:15:39;;;;;;;16.98;10.75;;;;;;;;;;5055007;28;20100;-62
2022/08/31 07:18:06;;;;;;;15.80;11.45;;;;;;;;;;5054866;28;20041;-64
2022/08/31 07:20:32;;;;;;;17.75;11.20;;;;;;;;;;5055437;28;20022;-65
2022/08/31 07:22:58;;;;;;;16.90;11.80;;;;;;;;;;5055461;28;20024;-65
2022/08/31 07:25:25;;;;;;;15.63;11.18;;;;;;;;;;5054015;28;20036;-66
2022/08/31 07:27:54;;;;;;;17.25;11.05;;;;;;;;;;5054811;28;20025;-64
2022/08/31 07:30:20;;;;;;;;;;;;;;;;;;5055397;28;20504;-64
2022/08/31 07:32:46;;;;;;;16.60;11.70;;;;;;;;;;5055201;28;19905;-64
2022/08/31 07:35:12;;;;;;;16.38;11.40;;;;;;;;;;5055322;28;20435;-64
2022/08/31 07:43:07;;;;;;;19.23;13.05;;;;;;;;;;5056425;28;20551;-64
2022/08/31 07:45:33;;;;;;;16.08;11.45;;;;;;;;;;5056010;28;20029;-64
2022/08/31 07:47:59;;;;;;;15.60;11.32;;;;;;;;;;5055583;28;20139;-64
2022/08/31 07:50:26;;;;;;;17.60;11.80;;;;;;;;;;5055716;28;20025;-64
2022/08/31 07:52:54;;;;;;;20.48;11.85;;;;;;;;;;5055062;28;20070;-64
2022/08/31 07:55:21;;;;;;;20.98;11.48;;;;;;;;;;5055359;28;20013;-65
2022/08/31 07:57:49;;;;;;;15.85;11.00;;;;;;;;;;5054233;28;20067;-64
2022/08/31 08:00:21;;;;;;;15.70;10.65;;;;;;;;;;5054836;28;20080;-64
2022/08/31 08:02:48;;;;;;;16.23;11.27;;;;;;;;;;5054904;28;20437;-64
2022/08/31 08:05:19;;;;;;;17.60;11.20;;;;;;;;;;5054480;28;20118;-64
2022/08/31 08:07:47;;;;;;;16.92;11.23;;;;;;;;;;5054551;28;20033;-64
2022/08/31 08:10:14;;;;;;;17.58;11.10;;;;;;;;;;5054327;28;20060;-65
2022/08/31 08:12:41;;;;;;;17.05;11.40;;;;;;;;;;5054685;28;20474;-63
2022/08/31 08:15:07;;;;;;;17.23;11.05;;;;;;;;;;5054492;28;20024;-62
2022/08/31 08:17:33;;;;;;;16.45;11.10;;;;;;;;;;5053904;28;20436;-63
2022/08/31 08:20:00;;;;;;;17.75;11.50;;;;;;;;;;5054130;28;20040;-63
2022/08/31 08:22:26;;;;;;;15.48;11.18;;;;;;;;;;5054317;28;20025;-58
2022/08/31 08:24:54;;;;;;;18.58;11.15;;;;;;;;;;5054766;28;20374;-58
2022/08/31 08:27:20;;;;;;;17.17;11.73;;;;;;;;;;5054428;28;20103;-58
2022/08/31 08:29:46;;;;;;;17.13;11.80;;;;;;;;;;5054139;28;20044;-59
2022/08/31 08:32:12;;;;;;;18.80;11.60;;;;;;;;;;5054594;28;20558;-63
2022/08/31 08:34:42;;;;;;;17.75;12.20;;;;;;;;;;5054013;28;20029;-59
2022/08/31 08:37:09;;;;;;;16.70;12.10;;;;;;;;;;5053870;28;20063;-60
2022/08/31 08:39:35;;;;;;;16.27;11.65;;;;;;;;;;5043191;28;20029;-60
2022/08/31 08:42:01;;;;;;;17.55;11.55;;;;;;;;;;5032429;28;20065;-61
2022/08/31 08:44:28;;;;;;;16.38;11.27;;;;;;;;;;5034297;28;20099;-58
2022/08/31 08:46:56;;;;;;;18.70;11.35;;;;;;;;;;5032544;28;20489;-61
2022/08/31 08:49:28;;;;;;;15.65;11.38;;;;;;;;;;5033673;28;20539;-60
2022/08/31 08:51:56;;;;;;;19.17;11.73;;;;;;;;;;5053693;28;20485;-60
2022/08/31 08:54:32;;;;;;;17.13;11.25;;;;;;;;;;5053661;28;20491;-61
2022/08/31 08:56:59;;;;;;;19.58;11.80;;;;;;;;;;5053811;28;20108;-61
2022/08/31 08:59:27;;;;;;;16.08;11.77;;;;;;;;;;5053124;28;20021;-60
2022/08/31 09:01:56;;;;;;;18.65;11.60;;;;;;;;;;5053391;28;20040;-62
2022/08/31 09:04:40;;;;;;;18.02;12.50;;;;;;;;;;5052501;28;20028;-61
2022/08/31 09:07:22;;;;;;;18.38;12.35;;;;;;;;;;5051390;28;20029;-61
2022/08/31 09:09:56;;;;;;;18.83;12.23;;;;;;;;;;5049806;28;20052;-60
2022/08/31 09:12:24;;;;;;;16.73;12.32;;;;;;;;;;5051912;28;20021;-61
2022/08/31 09:15:10;;;;;;;19.25;12.20;;;;;;;;;;5051819;28;20024;-61
2022/08/31 09:17:39;;;;;;;15.60;11.70;;;;;;;;;;5051845;28;20052;-61
2022/08/31 09:20:06;;;;;;;17.88;12.10;;;;;;;;;;5052953;28;20021;-60
2022/08/31 09:22:45;;;;;;;16.20;12.10;;;;;;;;;;5043419;28;20087;-63
2022/08/31 09:25:18;;;;;;;19.20;12.50;;;;;;;;;;5033162;28;20025;-62
2022/08/31 09:27:47;;;;;;;18.02;13.05;;;;;;;;;;5032660;28;20071;-62
2022/08/31 09:30:31;;;;;;;20.25;12.63;;;;;;;;;;5032796;28;20018;-62
2022/08/31 09:32:57;;;;;;;16.45;11.95;;;;;;;;;;5031577;28;20061;-63
2022/08/31 09:35:41;;;;;;;18.60;12.10;;;;;;;;;;5033167;28;20159;-62
2022/08/31 09:38:15;;;;;;;18.10;13.80;;;;;;;;;;5032432;28;20036;-64
2022/08/31 09:40:42;;;;;;;18.08;11.85;;;;;;;;;;5032655;28;20513;-64
2022/08/31 09:43:24;;;;;;;16.70;12.02;;;;;;;;;;5033023;28;20426;-64
2022/08/31 09:45:53;;;;;;;18.52;11.05;;;;;;;;;;5031736;28;20033;-65
2022/08/31 09:48:38;;;;;;;16.85;11.48;;;;;;;;;;5032480;28;20040;-64
2022/08/31 09:51:05;;;;;;;16.30;11.95;;;;;;;;;;5046555;28;20028;-64
2022/08/31 09:56:23;;;;;;;17.20;12.02;;;;;;;;;;5051997;28;20090;-65
2022/08/31 09:58:52;;;;;;;16.65;11.77;;;;;;;;;;5051880;28;20036;-64
2022/08/31 10:01:25;;;;;;;15.85;11.50;;;;;;;;;;5052449;28;20056;-64
2022/08/31 10:04:07;;;;;;;16.77;11.95;;;;;;;;;;5051562;28;20029;-63
2022/08/31 10:06:44;;;;;;;16.40;11.80;;;;;;;;;;5050731;28;20116;-64
2022/08/31 10:09:37;;;;;;;17.17;12.65;;;;;;;;;;5052128;28;20028;-63
2022/08/31 10:12:05;;;;;;;16.05;11.35;;;;;;;;;;5051678;28;20025;-63
2022/08/31 10:14:32;;;;;;;;;;;;;;;;;;5052461;28;20064;-62
2022/08/31 10:17:01;;;;;;;18.83;11.60;;;;;;;;;;5052086;28;19905;-63
2022/08/31 10:19:34;;;;;;;16.58;11.60;;;;;;;;;;5052054;28;20413;-63
2022/08/31 10:22:04;;;;;;;18.38;11.95;;;;;;;;;;5051927;28;20025;-63
2022/08/31 10:24:44;;;;;;;18.90;11.50;;;;;;;;;;5052029;28;20047;-63
2022/08/31 10:27:25;;;;;;;16.20;12.05;;;;;;;;;;5051853;28;20450;-63
2022/08/31 10:29:54;;;;;;;18.33;11.38;;;;;;;;;;5052177;28;20570;-63
2022/08/31 10:32:23;;;;;;;15.68;11.68;;;;;;;;;;5052118;28;20108;-62
2022/08/31 10:35:06;;;;;;;17.05;12.13;;;;;;;;;;5052158;28;20018;-63
2022/08/31 10:37:53;;;;;;;16.33;11.88;;;;;;;;;;5051572;28;20515;-62
2022/08/31 10:40:24;;;;;;;15.88;11.88;;;;;;;;;;5051705;28;20511;-61
2022/08/31 10:42:58;;;;;;;15.70;11.60;;;;;;;;;;5051693;28;20501;-61
2022/08/31 10:45:25;;;;;;;19.98;12.02;;;;;;;;;;5051984;28;20025;-61
2022/08/31 10:47:53;;;;;;;19.33;12.93;;;;;;;;;;5051773;28;20029;-61
2022/08/31 10:50:38;;;;;;;17.08;12.45;;;;;;;;;;5051808;28;20483;-61
2022/08/31 10:53:07;;;;;;;18.77;12.63;;;;;;;;;;5052018;28;20025;-59
2022/08/31 10:55:38;;;;;;;16.35;11.75;;;;;;;;;;5050357;28;20083;-61
2022/08/31 10:58:22;;;;;;;18.52;12.00;;;;;;;;;;5051578;28;20083;-62
2022/08/31 11:00:55;;;;;;;17.60;13.13;;;;;;;;;;5050367;28;20116;-61
2022/08/31 11:03:44;;;;;;;17.55;12.10;;;;;;;;;;5051677;28;20552;-62
2022/08/31 11:06:12;;;;;;;24.63;19.30;;;;;;;;;;5051435;28;20036;-63
2022/08/31 11:08:39;;;;;;;18.65;14.10;;;;;;;;;;5050664;28;20111;-62
2022/08/31 11:11:08;;;;;;;18.42;13.25;;;;;;;;;;5051626;28;20465;-61
2022/08/31 11:13:48;;;;;;;15.85;12.27;;;;;;;;;;5051095;28;20029;-62
2022/08/31 11:16:27;;;;;;;17.40;12.75;;;;;;;;;;5051560;28;20033;-62
2022/08/31 11:18:53;;;;;;;18.40;13.63;;;;;;;;;;5050982;28;20029;-62
2022/08/31 11:21:19;;;;;;;20.17;13.77;;;;;;;;;;5051088;28;20032;-62
2022/08/31 11:23:47;;;;;;;16.83;13.30;;;;;;;;;;5051623;28;20386;-63
2022/08/31 11:26:31;;;;;;;18.27;13.48;;;;;;;;;;5051150;28;20409;-62
2022/08/31 11:29:01;;;;;;;17.33;12.68;;;;;;;;;;5051114;28;20489;-62
2022/08/31 11:31:29;;;;;;;16.83;13.50;;;;;;;;;;5050871;28;20029;-62
2022/08/31 11:34:06;;;;;;;17.15;12.80;;;;;;;;;;5053344;28;20489;-62
2022/08/31 11:36:46;;;;;;;16.80;13.05;;;;;;;;;;5055093;28;20025;-61
2022/08/31 11:39:14;;;;;;;17.85;13.15;;;;;;;;;;5054970;28;20028;-63
2022/08/31 11:41:45;;;;;;;17.90;12.80;;;;;;;;;;5056579;28;20028;-61
2022/08/31 11:44:32;;;;;;;18.50;13.50;;;;;;;;;;4700418;28;9999876;-62
2022/08/31 11:47:14;;;;;;;17.17;13.38;;;;;;;;;;5037509;28;20064;-61
2022/08/31 11:49:48;;;;;;;16.80;13.10;;;;;;;;;;5050043;28;20168;-62
2022/08/31 11:52:24;;;;;;;19.60;13.50;;;;;;;;;;5041844;28;20512;-62
2022/08/31 11:54:51;;;;;;;19.33;13.02;;;;;;;;;;5050997;28;20043;-59
2022/08/31 11:57:24;;;;;;;17.37;13.23;;;;;;;;;;5051659;28;20596;-60
2022/08/31 11:59:51;;;;;;;17.10;12.98;;;;;;;;;;5050920;28;20275;-60
2022/08/31 12:02:21;;;;;;;17.00;13.18;;;;;;;;;;5051837;28;20032;-62
2022/08/31 12:04:51;;;;;;;18.25;13.30;;;;;;;;;;5051568;28;20556;-60
2022/08/31 12:07:23;;;;;;;18.15;12.68;;;;;;;;;;5051194;28;20098;-61
2022/08/31 12:09:54;;;;;;;19.83;12.23;;;;;;;;;;5051700;28;20082;-61
2022/08/31 12:12:41;;;;;;;16.00;12.05;;;;;;;;;;5051354;28;20115;-58
2022/08/31 12:15:07;;;;;;;16.27;12.20;;;;;;;;;;5051570;28;20029;-60
2022/08/31 12:17:43;;;;;;;18.23;12.27;;;;;;;;;;5051260;28;20533;-59
2022/08/31 12:20:11;;;;;;;15.82;12.32;;;;;;;;;;5049803;28;20404;-62
2022/08/31 12:25:29;;;;;;;16.65;12.43;;;;;;;;;;5051020;28;20003;-60
2022/08/31 12:28:15;;;;;;;17.73;12.05;;;;;;;;;;5050926;28;20027;-63
2022/08/31 12:30:53;;;;;;;17.63;12.40;;;;;;;;;;5051099;28;20055;-60
2022/08/31 12:33:20;;;;;;;16.65;12.23;;;;;;;;;;5049065;28;20342;-63
2022/08/31 12:35:48;;;;;;;15.70;12.13;;;;;;;;;;5051572;28;20025;-61
2022/08/31 12:38:21;;;;;;;18.08;11.95;;;;;;;;;;5050654;28;20105;-63
2022/08/31 12:40:50;;;;;;;15.88;12.00;;;;;;;;;;5052178;28;20029;-63
2022/08/31 12:43:19;;;;;;;16.52;12.13;;;;;;;;;;5052853;28;20021;-62
2022/08/31 12:45:59;;;;;;;16.80;12.63;;;;;;;;;;5051981;28;20385;-61
2022/08/31 12:48:44;;;;;;;16.75;12.88;;;;;;;;;;5052944;28;20385;-62
2022/08/31 12:51:28;;;;;;;15.48;12.18;;;;;;;;;;5053122;28;20033;-63
2022/08/31 12:53:54;;;;;;;18.70;12.38;;;;;;;;;;5052399;28;20025;-60
2022/08/31 12:56:23;;;;;;;16.63;12.57;;;;;;;;;;5053712;28;20028;-62
2022/08/31 12:59:08;;;;;;;17.50;12.68;;;;;;;;;;5053330;28;20040;-62
2022/08/31 13:01:38;;;;;;;15.80;12.48;;;;;;;;;;5053713;28;20055;-62
2022/08/31 13:04:05;;;;;;;15.70;12.27;;;;;;;;;;5053429;28;20029;-56
2022/08/31 13:06:36;;;;;;;17.73;12.40;;;;;;;;;;4702276;28;10000513;-62
2022/08/31 13:09:03;;;;;;;17.10;12.70;;;;;;;;;;5049776;28;20033;-60
2022/08/31 13:11:33;;;;;;;17.00;12.93;;;;;;;;;;5049580;28;20029;-61
2022/08/31 13:14:23;;;;;;;18.52;12.50;;;;;;;;;;5049980;28;20274;-62
2022/08/31 13:16:50;;;;;;;21.73;14.45;;;;;;;;;;5046488;28;20056;-61
2022/08/31 13:19:28;;;;;;;18.75;12.32;;;;;;;;;;5038703;28;20061;-61
2022/08/31 13:21:59;;;;;;;18.40;14.05;;;;;;;;;;5054517;28;20032;-62
2022/08/31 13:24:29;;;;;;;19.00;14.00;;;;;;;;;;5049414;28;20035;-62
2022/08/31 13:27:03;;;;;;;17.60;12.82;;;;;;;;;;5049081;28;20033;-62
2022/08/31 13:29:29;;;;;;;16.60;12.88;;;;;;;;;;5049817;28;20043;-62
2022/08/31 13:31:55;;;;;;;18.52;13.52;;;;;;;;;;5051582;28;20036;-62
2022/08/31 13:34:22;;;;;;;17.17;12.32;;;;;;;;;;5051341;28;20021;-62
2022/08/31 13:36:53;;;;;;;19.38;13.88;;;;;;;;;;5051523;28;20448;-63
2022/08/31 13:39:20;;;;;;;16.92;13.07;;;;;;;;;;5052978;28;20033;-62
2022/08/31 13:42:04;;;;;;;18.45;13.20;;;;;;;;;;5052694;28;20562;-62
2022/08/31 13:44:34;;;;;;;16.58;13.13;;;;;;;;;;5051561;28;20036;-63
2022/08/31 13:47:04;;;;;;;17.02;12.40;;;;;;;;;;5052427;28;20562;-63
2022/08/31 13:49:35;;;;;;;18.25;13.48;;;;;;;;;;5051998;28;20477;-63
2022/08/31 13:52:05;;;;;;;18.20;12.70;;;;;;;;;;5052353;28;20516;-63
2022/08/31 13:54:33;;;;;;;17.55;12.70;;;;;;;;;;5052483;28;20025;-63
2022/08/31 13:57:18;;;;;;;15.90;12.73;;;;;;;;;;5052321;28;20028;-63
2022/08/31 13:59:45;;;;;;;16.75;12.50;;;;;;;;;;5052254;28;20033;-64
2022/08/31 14:02:27;;;;;;;17.30;13.52;;;;;;;;;;5052235;28;20489;-64
2022/08/31 14:07:28;;;;;;;17.63;13.23;;;;;;;;;;5051108;28;20139;-64
2022/08/31 14:10:02;;;;;;;16.83;13.15;;;;;;;;;;5031952;28;20021;-65
2022/08/31 14:12:36;;;;;;;15.80;12.57;;;;;;;;;;5032142;28;20040;-63
2022/08/31 14:15:16;;;;;;;18.35;14.65;;;;;;;;;;5031932;28;20128;-64
2022/08/31 14:17:51;;;;;;;16.00;12.30;;;;;;;;;;5031834;28;20794;-63
2022/08/31 14:20:35;;;;;;;16.60;13.00;;;;;;;;;;5032048;28;20120;-63
2022/08/31 14:23:26;;;;;;;18.10;13.93;;;34.50;33.60;;;;;;5031708;28;20100;-64
2022/08/31 14:26:03;;;;;;;18.33;15.20;;;33.00;35.20;;;;;;5031745;28;20029;-64
2022/08/31 14:28:41;;;;;;;16.13;13.02;;;32.20;35.20;;;;;;5031829;28;20393;-62
2022/08/31 14:31:28;;;;;;;22.40;18.20;;;31.70;37.80;;;;;;5030502;28;20143;-62
2022/08/31 14:33:54;;;;;;;;;;;;;;;;;;5032322;28;20494;-63
2022/08/31 14:36:23;;;;;;;17.42;11.90;;;;;;;;;;5031689;28;19905;-62
2022/08/31 14:38:53;;;;;;;16.70;12.40;;;;;;;;;;5031269;28;20366;-62
2022/08/31 14:41:23;;;;;;;17.13;12.50;;;;;;;;;;5030176;28;20025;-63
2022/08/31 14:43:49;;;;;;;17.05;12.57;;;;;;;;;;5039336;28;20029;-64
2022/08/31 14:46:26;;;;;;;16.95;12.52;;;31.30;39.50;;;;;;5049802;28;20039;-64
2022/08/31 14:48:52;;;;;;;18.50;13.05;;;35.30;34.70;;;;;;5051016;28;20021;-64
2022/08/31 14:51:18;;;;;;;17.42;12.55;;;36.30;33.00;;;;;;5051379;28;20021;-64